sensor_id;sensor_type;location;lat;lon;timestamp;pressure;altitude;pressure_sealevel;temperature;humidity
55866;BME280;41784;49.984;7.518;2022-07-04T00:01:35;97855.34;;;17.33;60.12
55866;BME280;41784;49.984;7.518;2022-07-04T00:04:03;97860.75;;;17.26;60.62
55866;BME280;41784;49.984;7.518;2022-07-04T00:06:32;97862.63;;;17.21;60.89
55866;BME280;41784;49.984;7.518;2022-07-04T00:09:00;97859.22;;;17.19;60.87
55866;BME280;41784;49.984;7.518;2022-07-04T00:11:29;97853.19;;;17.15;60.58
55866;BME280;41784;49.984;7.518;2022-07-04T00:13:57;97858.50;;;17.12;61.02
55866;BME280;41784;49.984;7.518;2022-07-04T00:16:25;97854.31;;;17.05;61.49
55866;BME280;41784;49.984;7.518;2022-07-04T00:18:57;97847.56;;;16.98;61.04
55866;BME280;41784;49.984;7.518;2022-07-04T00:21:25;97852.81;;;16.96;61.36
55866;BME280;41784;49.984;7.518;2022-07-04T00:23:53;97847.66;;;16.93;62.26
55866;BME280;41784;49.984;7.518;2022-07-04T00:26:22;97846.94;;;16.88;61.87
55866;BME280;41784;49.984;7.518;2022-07-04T00:28:50;97847.00;;;16.85;61.93
55866;BME280;41784;49.984;7.518;2022-07-04T00:31:19;97854.13;;;16.78;62.35
55866;BME280;41784;49.984;7.518;2022-07-04T00:33:47;97847.28;;;16.72;62.63
55866;BME280;41784;49.984;7.518;2022-07-04T00:36:18;97849.13;;;16.69;62.79
55866;BME280;41784;49.984;7.518;2022-07-04T00:38:47;97845.78;;;16.64;62.98
55866;BME280;41784;49.984;7.518;2022-07-04T00:41:15;97846.75;;;16.58;63.20
55866;BME280;41784;49.984;7.518;2022-07-04T00:43:44;97837.25;;;16.56;63.27
55866;BME280;41784;49.984;7.518;2022-07-04T00:46:12;97829.53;;;16.51;63.61
55866;BME280;41784;49.984;7.518;2022-07-04T00:48:40;97830.44;;;16.50;64.07
55866;BME280;41784;49.984;7.518;2022-07-04T00:51:09;97834.00;;;16.46;63.29
55866;BME280;41784;49.984;7.518;2022-07-04T00:53:40;97836.66;;;16.44;64.05
55866;BME280;41784;49.984;7.518;2022-07-04T00:56:08;97840.25;;;16.39;64.41
55866;BME280;41784;49.984;7.518;2022-07-04T00:58:37;97830.81;;;16.35;64.20
55866;BME280;41784;49.984;7.518;2022-07-04T01:01:06;97829.97;;;16.33;64.71
55866;BME280;41784;49.984;7.518;2022-07-04T01:03:34;97827.44;;;16.29;64.98
55866;BME280;41784;49.984;7.518;2022-07-04T01:06:03;97824.94;;;16.25;64.99
55866;BME280;41784;49.984;7.518;2022-07-04T01:08:33;97835.41;;;16.22;64.98
55866;BME280;41784;49.984;7.518;2022-07-04T01:11:05;97832.94;;;16.17;65.09
55866;BME280;41784;49.984;7.518;2022-07-04T01:13:33;97825.22;;;16.13;65.53
55866;BME280;41784;49.984;7.518;2022-07-04T01:16:02;97838.34;;;16.08;65.70
55866;BME280;41784;49.984;7.518;2022-07-04T01:18:31;97839.38;;;16.01;66.29
55866;BME280;41784;49.984;7.518;2022-07-04T01:21:02;97836.78;;;15.99;66.24
55866;BME280;41784;49.984;7.518;2022-07-04T01:23:30;97844.69;;;15.96;66.28
55866;BME280;41784;49.984;7.518;2022-07-04T01:25:59;97854.38;;;15.89;65.60
55866;BME280;41784;49.984;7.518;2022-07-04T01:28:27;97855.38;;;15.82;65.93
55866;BME280;41784;49.984;7.518;2022-07-04T01:30:56;97857.13;;;15.82;66.61
55866;BME280;41784;49.984;7.518;2022-07-04T01:33:24;97867.47;;;15.86;66.91
55866;BME280;41784;49.984;7.518;2022-07-04T01:35:52;97862.25;;;15.86;67.58
55866;BME280;41784;49.984;7.518;2022-07-04T01:38:23;97864.16;;;15.78;67.28
55866;BME280;41784;49.984;7.518;2022-07-04T01:40:52;97857.41;;;15.68;67.04
55866;BME280;41784;49.984;7.518;2022-07-04T01:43:20;97869.66;;;15.63;67.56
55866;BME280;41784;49.984;7.518;2022-07-04T01:45:49;97874.06;;;15.59;67.53
55866;BME280;41784;49.984;7.518;2022-07-04T01:48:17;97881.97;;;15.55;67.95
55866;BME280;41784;49.984;7.518;2022-07-04T01:50:46;97882.94;;;15.49;68.22
55866;BME280;41784;49.984;7.518;2022-07-04T01:53:14;97880.34;;;15.48;68.07
55866;BME280;41784;49.984;7.518;2022-07-04T01:55:45;97886.44;;;15.48;68.43
55866;BME280;41784;49.984;7.518;2022-07-04T01:58:14;97886.59;;;15.39;68.31
55866;BME280;41784;49.984;7.518;2022-07-04T02:00:42;97892.72;;;15.36;68.10
55866;BME280;41784;49.984;7.518;2022-07-04T02:03:23;97905.81;;;15.32;69.04
55866;BME280;41784;49.984;7.518;2022-07-04T02:05:52;97898.09;;;15.27;69.25
55866;BME280;41784;49.984;7.518;2022-07-04T02:08:20;97906.75;;;15.29;69.74
55866;BME280;41784;49.984;7.518;2022-07-04T02:11:11;97905.06;;;15.25;69.66
55866;BME280;41784;49.984;7.518;2022-07-04T02:13:39;97906.97;;;15.15;69.44
55866;BME280;41784;49.984;7.518;2022-07-04T02:16:05;97908.94;;;15.01;69.27
55866;BME280;41784;49.984;7.518;2022-07-04T02:18:34;97911.81;;;14.86;69.89
55866;BME280;41784;49.984;7.518;2022-07-04T02:21:02;97915.38;;;14.78;70.27
55866;BME280;41784;49.984;7.518;2022-07-04T02:23:32;97912.84;;;14.75;70.56
55866;BME280;41784;49.984;7.518;2022-07-04T02:26:00;97918.03;;;14.74;70.42
55866;BME280;41784;49.984;7.518;2022-07-04T02:28:31;97918.16;;;14.68;70.30
55866;BME280;41784;49.984;7.518;2022-07-04T02:31:00;97919.97;;;14.63;69.90
55866;BME280;41784;49.984;7.518;2022-07-04T02:33:28;97927.00;;;14.54;70.60
55866;BME280;41784;49.984;7.518;2022-07-04T02:35:56;97921.88;;;14.50;70.35
55866;BME280;41784;49.984;7.518;2022-07-04T02:38:25;97925.31;;;14.50;70.54
55866;BME280;41784;49.984;7.518;2022-07-04T02:40:54;97925.38;;;14.47;70.44
55866;BME280;41784;49.984;7.518;2022-07-04T02:43:22;97927.13;;;14.42;70.81
55866;BME280;41784;49.984;7.518;2022-07-04T02:45:53;97945.50;;;14.31;71.17
55866;BME280;41784;49.984;7.518;2022-07-04T02:48:21;97928.22;;;14.27;71.43
55866;BME280;41784;49.984;7.518;2022-07-04T02:50:50;97925.88;;;14.07;72.09
55866;BME280;41784;49.984;7.518;2022-07-04T02:53:18;97929.41;;;14.00;72.84
55866;BME280;41784;49.984;7.518;2022-07-04T02:55:47;97934.66;;;13.97;72.88
55866;BME280;41784;49.984;7.518;2022-07-04T02:58:15;97926.97;;;13.89;71.90
55866;BME280;41784;49.984;7.518;2022-07-04T03:00:44;97939.13;;;13.86;72.08
55866;BME280;41784;49.984;7.518;2022-07-04T03:03:15;97931.34;;;13.84;72.70
55866;BME280;41784;49.984;7.518;2022-07-04T03:05:43;97924.47;;;13.83;72.73
55866;BME280;41784;49.984;7.518;2022-07-04T03:08:12;97932.25;;;13.82;73.11
55866;BME280;41784;49.984;7.518;2022-07-04T03:10:40;97933.94;;;13.84;73.42
55866;BME280;41784;49.984;7.518;2022-07-04T03:13:08;97934.84;;;13.83;73.18
55866;BME280;41784;49.984;7.518;2022-07-04T03:15:37;97933.09;;;13.81;73.40
55866;BME280;41784;49.984;7.518;2022-07-04T03:18:05;97928.84;;;13.77;72.75
55866;BME280;41784;49.984;7.518;2022-07-04T03:20:36;97935.78;;;13.76;72.64
55866;BME280;41784;49.984;7.518;2022-07-04T03:23:05;97934.00;;;13.78;73.19
55866;BME280;41784;49.984;7.518;2022-07-04T03:25:33;97930.59;;;13.76;73.63
55866;BME280;41784;49.984;7.518;2022-07-04T03:28:02;97932.38;;;13.69;73.40
55866;BME280;41784;49.984;7.518;2022-07-04T03:30:31;97931.59;;;13.63;73.06
55866;BME280;41784;49.984;7.518;2022-07-04T03:32:59;97933.41;;;13.56;72.19
55866;BME280;41784;49.984;7.518;2022-07-04T03:35:27;97928.25;;;13.51;72.46
55866;BME280;41784;49.984;7.518;2022-07-04T03:37:58;97938.66;;;13.50;72.51
55866;BME280;41784;49.984;7.518;2022-07-04T03:40:27;97930.00;;;13.49;73.13
55866;BME280;41784;49.984;7.518;2022-07-04T03:42:56;97934.31;;;13.50;73.77
55866;BME280;41784;49.984;7.518;2022-07-04T03:45:25;97934.31;;;13.52;73.69
55866;BME280;41784;49.984;7.518;2022-07-04T03:47:53;97930.81;;;13.53;73.50
55866;BME280;41784;49.984;7.518;2022-07-04T03:50:22;97934.31;;;13.50;72.92
55866;BME280;41784;49.984;7.518;2022-07-04T03:52:50;97931.72;;;13.50;73.05
55866;BME280;41784;49.984;7.518;2022-07-04T03:55:21;97943.81;;;13.53;73.27
55866;BME280;41784;49.984;7.518;2022-07-04T03:57:50;97946.44;;;13.50;72.63
55866;BME280;41784;49.984;7.518;2022-07-04T04:00:30;97944.78;;;13.44;72.17
55866;BME280;41784;49.984;7.518;2022-07-04T04:02:58;97946.44;;;13.50;73.01
55866;BME280;41784;49.984;7.518;2022-07-04T04:05:27;97948.19;;;13.49;73.09
55866;BME280;41784;49.984;7.518;2022-07-04T04:07:56;97955.06;;;13.50;73.32
55866;BME280;41784;49.984;7.518;2022-07-04T04:10:25;97949.00;;;13.56;72.50
55866;BME280;41784;49.984;7.518;2022-07-04T04:12:54;97961.94;;;13.59;73.15
55866;BME280;41784;49.984;7.518;2022-07-04T04:15:22;97964.53;;;13.58;73.12
55866;BME280;41784;49.984;7.518;2022-07-04T04:17:53;97962.81;;;13.55;73.19
55866;BME280;41784;49.984;7.518;2022-07-04T04:20:22;97969.78;;;13.50;73.45
55866;BME280;41784;49.984;7.518;2022-07-04T04:22:50;97968.91;;;13.51;73.70
55866;BME280;41784;49.984;7.518;2022-07-04T04:25:19;97975.00;;;13.50;73.93
55866;BME280;41784;49.984;7.518;2022-07-04T04:27:47;97983.56;;;13.58;73.88
55866;BME280;41784;49.984;7.518;2022-07-04T04:30:16;97974.81;;;13.65;73.76
55866;BME280;41784;49.984;7.518;2022-07-04T04:32:44;97969.59;;;13.71;73.29
55866;BME280;41784;49.984;7.518;2022-07-04T04:35:15;97967.00;;;13.71;73.57
55866;BME280;41784;49.984;7.518;2022-07-04T04:37:44;97978.16;;;13.80;73.17
55866;BME280;41784;49.984;7.518;2022-07-04T04:40:13;97976.31;;;13.89;73.27
55866;BME280;41784;49.984;7.518;2022-07-04T04:42:42;97974.47;;;13.98;73.06
55866;BME280;41784;49.984;7.518;2022-07-04T04:45:10;97978.72;;;14.05;73.18
55866;BME280;41784;49.984;7.518;2022-07-04T04:47:39;97980.34;;;14.15;72.37
55866;BME280;41784;49.984;7.518;2022-07-04T04:50:09;97987.19;;;14.24;72.36
55866;BME280;41784;49.984;7.518;2022-07-04T04:52:41;97982.63;;;14.41;72.02
55866;BME280;41784;49.984;7.518;2022-07-04T04:55:10;97987.63;;;14.56;72.02
55866;BME280;41784;49.984;7.518;2022-07-04T04:57:38;97996.13;;;14.71;71.23
55866;BME280;41784;49.984;7.518;2022-07-04T05:00:07;97991.53;;;14.88;70.76
55866;BME280;41784;49.984;7.518;2022-07-04T05:02:36;97999.97;;;15.04;70.28
55866;BME280;41784;49.984;7.518;2022-07-04T05:05:05;98000.53;;;15.23;69.77
55866;BME280;41784;49.984;7.518;2022-07-04T05:07:34;97996.03;;;15.33;69.39
55866;BME280;41784;49.984;7.518;2022-07-04T05:10:05;97999.28;;;15.47;68.77
55866;BME280;41784;49.984;7.518;2022-07-04T05:12:35;98003.34;;;15.62;68.72
55866;BME280;41784;49.984;7.518;2022-07-04T05:15:03;97996.13;;;15.81;68.56
55866;BME280;41784;49.984;7.518;2022-07-04T05:17:32;98000.09;;;16.00;68.12
55866;BME280;41784;49.984;7.518;2022-07-04T05:20:00;97992.81;;;16.16;67.50
55866;BME280;41784;49.984;7.518;2022-07-04T05:22:29;97979.53;;;16.28;66.35
55866;BME280;41784;49.984;7.518;2022-07-04T05:24:57;97986.25;;;16.40;65.59
55866;BME280;41784;49.984;7.518;2022-07-04T05:27:28;97993.16;;;16.43;65.39
55866;BME280;41784;49.984;7.518;2022-07-04T05:29:57;97988.44;;;16.59;65.22
55866;BME280;41784;49.984;7.518;2022-07-04T05:32:26;97996.00;;;16.72;64.58
55866;BME280;41784;49.984;7.518;2022-07-04T05:34:54;97995.81;;;16.82;64.53
55866;BME280;41784;49.984;7.518;2022-07-04T05:37:23;97994.50;;;17.01;63.87
55866;BME280;41784;49.984;7.518;2022-07-04T05:39:52;97993.53;;;17.05;63.59
55866;BME280;41784;49.984;7.518;2022-07-04T05:42:20;98010.00;;;17.07;63.03
55866;BME280;41784;49.984;7.518;2022-07-04T05:44:51;98011.31;;;17.25;62.84
55866;BME280;41784;49.984;7.518;2022-07-04T05:47:20;98011.97;;;17.35;63.29
55866;BME280;41784;49.984;7.518;2022-07-04T05:49:50;98005.13;;;17.65;62.68
55866;BME280;41784;49.984;7.518;2022-07-04T05:52:18;98001.00;;;17.91;61.62
55866;BME280;41784;49.984;7.518;2022-07-04T05:54:47;98004.47;;;18.22;60.55
55866;BME280;41784;49.984;7.518;2022-07-04T05:57:15;98007.13;;;18.52;59.31
55866;BME280;41784;49.984;7.518;2022-07-04T05:59:44;98007.97;;;18.84;58.53
55866;BME280;41784;49.984;7.518;2022-07-04T06:02:15;98008.13;;;19.07;57.01
55866;BME280;41784;49.984;7.518;2022-07-04T06:04:44;98008.38;;;19.26;57.11
55866;BME280;41784;49.984;7.518;2022-07-04T06:07:13;98004.22;;;19.46;55.72
55866;BME280;41784;49.984;7.518;2022-07-04T06:09:41;97999.72;;;19.78;55.24
55866;BME280;41784;49.984;7.518;2022-07-04T06:12:10;98000.47;;;20.06;54.06
55866;BME280;41784;49.984;7.518;2022-07-04T06:14:39;97996.06;;;20.30;53.00
55866;BME280;41784;49.984;7.518;2022-07-04T06:17:08;97998.44;;;20.62;52.74
55866;BME280;41784;49.984;7.518;2022-07-04T06:19:40;97987.97;;;20.84;52.29
55866;BME280;41784;49.984;7.518;2022-07-04T06:22:09;97986.88;;;20.89;52.04
55866;BME280;41784;49.984;7.518;2022-07-04T06:24:38;97986.81;;;20.69;51.93
55866;BME280;41784;49.984;7.518;2022-07-04T06:27:06;97980.53;;;20.73;52.38
55866;BME280;41784;49.984;7.518;2022-07-04T06:29:38;97971.38;;;20.83;51.61
55866;BME280;41784;49.984;7.518;2022-07-04T06:32:08;97977.63;;;21.02;50.75
55866;BME280;41784;49.984;7.518;2022-07-04T06:34:36;97983.22;;;21.37;49.90
55866;BME280;41784;49.984;7.518;2022-07-04T06:37:20;97975.13;;;21.64;49.35
55866;BME280;41784;49.984;7.518;2022-07-04T06:39:49;97975.25;;;21.81;48.58
55866;BME280;41784;49.984;7.518;2022-07-04T06:42:18;97970.50;;;21.90;48.39
55866;BME280;41784;49.984;7.518;2022-07-04T06:44:49;97964.69;;;22.02;47.27
55866;BME280;41784;49.984;7.518;2022-07-04T06:47:17;97965.06;;;22.34;47.25
55866;BME280;41784;49.984;7.518;2022-07-04T06:49:46;97968.91;;;22.83;46.61
55866;BME280;41784;49.984;7.518;2022-07-04T06:52:15;97967.88;;;23.24;45.19
55866;BME280;41784;49.984;7.518;2022-07-04T06:54:48;97964.88;;;23.31;44.24
55866;BME280;41784;49.984;7.518;2022-07-04T06:57:17;97953.47;;;23.66;43.95
55866;BME280;41784;49.984;7.518;2022-07-04T06:59:46;97960.00;;;23.76;41.78
55866;BME280;41784;49.984;7.518;2022-07-04T07:02:15;97951.69;;;23.84;41.08
55866;BME280;41784;49.984;7.518;2022-07-04T07:04:44;97944.97;;;24.11;41.62
55866;BME280;41784;49.984;7.518;2022-07-04T07:07:12;97943.31;;;24.42;41.45
55866;BME280;41784;49.984;7.518;2022-07-04T07:09:40;97946.44;;;24.82;40.07
55866;BME280;41784;49.984;7.518;2022-07-04T07:12:11;97942.13;;;25.11;40.19
55866;BME280;41784;49.984;7.518;2022-07-04T07:14:40;97945.66;;;25.42;39.39
55866;BME280;41784;49.984;7.518;2022-07-04T07:17:08;97948.47;;;25.69;38.26
55866;BME280;41784;49.984;7.518;2022-07-04T07:19:37;97943.63;;;26.06;37.86
55866;BME280;41784;49.984;7.518;2022-07-04T07:22:05;97940.72;;;26.53;36.35
55866;BME280;41784;49.984;7.518;2022-07-04T07:24:34;97948.66;;;26.95;35.66
55866;BME280;41784;49.984;7.518;2022-07-04T07:27:03;97951.94;;;27.13;35.50
55866;BME280;41784;49.984;7.518;2022-07-04T07:29:34;97943.47;;;26.93;35.71
55866;BME280;41784;49.984;7.518;2022-07-04T07:32:03;97955.09;;;27.05;35.28
55866;BME280;41784;49.984;7.518;2022-07-04T07:34:32;97963.59;;;27.10;36.29
55866;BME280;41784;49.984;7.518;2022-07-04T07:37:00;97953.19;;;27.34;35.74
55866;BME280;41784;49.984;7.518;2022-07-04T07:39:28;97947.41;;;27.68;35.10
55866;BME280;41784;49.984;7.518;2022-07-04T07:41:57;97947.38;;;27.95;34.49
55866;BME280;41784;49.984;7.518;2022-07-04T07:44:26;97944.31;;;28.01;34.57
55866;BME280;41784;49.984;7.518;2022-07-04T07:46:57;97943.31;;;28.53;33.41
55866;BME280;41784;49.984;7.518;2022-07-04T07:49:25;97939.59;;;28.43;32.98
55866;BME280;41784;49.984;7.518;2022-07-04T07:51:54;97933.25;;;28.69;32.67
55866;BME280;41784;49.984;7.518;2022-07-04T07:54:23;97935.38;;;28.64;33.14
55866;BME280;41784;49.984;7.518;2022-07-04T07:56:52;97927.91;;;28.82;32.64
55866;BME280;41784;49.984;7.518;2022-07-04T07:59:21;97922.91;;;29.15;31.56
55866;BME280;41784;49.984;7.518;2022-07-04T08:01:49;97926.66;;;29.47;31.70
55866;BME280;41784;49.984;7.518;2022-07-04T08:04:21;97919.81;;;29.67;30.12
55866;BME280;41784;49.984;7.518;2022-07-04T08:07:02;97923.00;;;29.72;30.00
55866;BME280;41784;49.984;7.518;2022-07-04T08:09:31;97929.22;;;30.07;29.86
55866;BME280;41784;49.984;7.518;2022-07-04T08:12:00;97917.84;;;30.50;28.99
55866;BME280;41784;49.984;7.518;2022-07-04T08:14:31;97912.13;;;30.54;28.43
55866;BME280;41784;49.984;7.518;2022-07-04T08:16:59;97898.56;;;30.57;28.29
55866;BME280;41784;49.984;7.518;2022-07-04T08:19:31;97912.41;;;30.40;28.23
55866;BME280;41784;49.984;7.518;2022-07-04T08:21:59;97910.81;;;30.49;28.62
55866;BME280;41784;49.984;7.518;2022-07-04T08:24:28;97912.13;;;30.77;28.16
55866;BME280;41784;49.984;7.518;2022-07-04T08:26:56;97901.91;;;30.82;27.92
55866;BME280;41784;49.984;7.518;2022-07-04T08:29:25;97905.91;;;30.88;27.23
55866;BME280;41784;49.984;7.518;2022-07-04T08:31:56;97900.31;;;30.91;27.65
55866;BME280;41784;49.984;7.518;2022-07-04T08:34:25;97892.63;;;30.54;27.76
55866;BME280;41784;49.984;7.518;2022-07-04T08:36:56;97895.69;;;30.81;27.76
55866;BME280;41784;49.984;7.518;2022-07-04T08:39:25;97900.94;;;31.27;26.99
55866;BME280;41784;49.984;7.518;2022-07-04T08:41:54;97901.19;;;31.56;25.61
55866;BME280;41784;49.984;7.518;2022-07-04T08:44:24;97900.63;;;31.83;25.01
55866;BME280;41784;49.984;7.518;2022-07-04T08:46:54;97895.13;;;31.84;25.05
55866;BME280;41784;49.984;7.518;2022-07-04T08:49:23;97889.22;;;32.02;25.50
55866;BME280;41784;49.984;7.518;2022-07-04T08:51:53;97893.09;;;32.49;25.12
55866;BME280;41784;49.984;7.518;2022-07-04T08:54:25;97888.25;;;32.84;23.64
55866;BME280;41784;49.984;7.518;2022-07-04T08:57:09;97885.81;;;32.81;23.36
55866;BME280;41784;49.984;7.518;2022-07-04T08:59:51;97893.47;;;32.45;23.45
55866;BME280;41784;49.984;7.518;2022-07-04T09:02:21;97896.47;;;32.52;23.57
55866;BME280;41784;49.984;7.518;2022-07-04T09:04:50;97894.50;;;32.54;23.49
55866;BME280;41784;49.984;7.518;2022-07-04T09:07:18;97887.91;;;32.58;23.08
55866;BME280;41784;49.984;7.518;2022-07-04T09:09:50;97892.41;;;32.57;24.03
55866;BME280;41784;49.984;7.518;2022-07-04T09:12:18;97893.00;;;32.90;23.57
55866;BME280;41784;49.984;7.518;2022-07-04T09:14:47;97890.38;;;33.19;23.69
55866;BME280;41784;49.984;7.518;2022-07-04T09:17:17;97891.91;;;33.51;23.06
55866;BME280;41784;49.984;7.518;2022-07-04T09:19:46;97887.41;;;33.51;22.61
55866;BME280;41784;49.984;7.518;2022-07-04T09:22:32;97880.09;;;33.63;22.56
55866;BME280;41784;49.984;7.518;2022-07-04T09:25:04;97876.69;;;33.32;22.58
55866;BME280;41784;49.984;7.518;2022-07-04T09:27:33;97872.75;;;33.46;22.78
55866;BME280;41784;49.984;7.518;2022-07-04T09:30:02;97869.19;;;33.74;22.71
55866;BME280;41784;49.984;7.518;2022-07-04T09:32:35;97862.47;;;34.08;22.39
55866;BME280;41784;49.984;7.518;2022-07-04T09:35:04;97857.91;;;34.18;22.80
55866;BME280;41784;49.984;7.518;2022-07-04T09:37:33;97867.69;;;34.37;21.80
55866;BME280;41784;49.984;7.518;2022-07-04T09:40:06;97856.41;;;34.33;22.09
55866;BME280;41784;49.984;7.518;2022-07-04T09:42:39;97861.38;;;34.56;22.03
55866;BME280;41784;49.984;7.518;2022-07-04T09:45:09;97860.00;;;34.52;21.53
55866;BME280;41784;49.984;7.518;2022-07-04T09:47:38;97866.56;;;34.39;21.77
55866;BME280;41784;49.984;7.518;2022-07-04T09:50:08;97861.44;;;34.46;21.31
55866;BME280;41784;49.984;7.518;2022-07-04T09:52:47;97861.63;;;34.62;21.16
55866;BME280;41784;49.984;7.518;2022-07-04T09:55:22;97863.97;;;34.93;20.93
55866;BME280;41784;49.984;7.518;2022-07-04T09:57:55;97858.41;;;35.22;20.63
55866;BME280;41784;49.984;7.518;2022-07-04T10:00:24;97859.16;;;35.33;20.61
55866;BME280;41784;49.984;7.518;2022-07-04T10:02:54;97865.00;;;35.10;20.76
55866;BME280;41784;49.984;7.518;2022-07-04T10:05:24;97856.47;;;35.15;20.87
55866;BME280;41784;49.984;7.518;2022-07-04T10:07:54;97865.66;;;35.12;20.41
55866;BME280;41784;49.984;7.518;2022-07-04T10:10:27;97855.84;;;35.21;20.16
55866;BME280;41784;49.984;7.518;2022-07-04T10:12:57;97847.44;;;35.42;20.13
55866;BME280;41784;49.984;7.518;2022-07-04T10:15:26;97854.28;;;35.36;20.15
55866;BME280;41784;49.984;7.518;2022-07-04T10:17:55;97855.78;;;35.13;20.14
55866;BME280;41784;49.984;7.518;2022-07-04T10:20:26;97861.34;;;35.01;20.24
55866;BME280;41784;49.984;7.518;2022-07-04T10:22:55;97862.06;;;34.86;20.76
55866;BME280;41784;49.984;7.518;2022-07-04T10:25:26;97867.56;;;34.84;21.11
55866;BME280;41784;49.984;7.518;2022-07-04T10:27:55;97864.25;;;34.90;20.63
55866;BME280;41784;49.984;7.518;2022-07-04T10:30:24;97862.19;;;34.84;20.86
55866;BME280;41784;49.984;7.518;2022-07-04T10:32:54;97870.94;;;34.86;20.39
55866;BME280;41784;49.984;7.518;2022-07-04T10:38:06;97863.50;;;34.80;20.25
55866;BME280;41784;49.984;7.518;2022-07-04T10:40:42;97862.03;;;34.40;21.08
55866;BME280;41784;49.984;7.518;2022-07-04T10:45:55;97861.50;;;34.82;21.01
55866;BME280;41784;49.984;7.518;2022-07-04T10:48:24;97868.91;;;35.16;21.00
55866;BME280;41784;49.984;7.518;2022-07-04T10:50:58;97869.28;;;35.21;20.68
55866;BME280;41784;49.984;7.518;2022-07-04T10:53:27;97864.84;;;35.12;19.95
55866;BME280;41784;49.984;7.518;2022-07-04T10:56:02;97864.25;;;34.90;20.35
55866;BME280;41784;49.984;7.518;2022-07-04T10:58:41;97861.97;;;34.77;20.72
55866;BME280;41784;49.984;7.518;2022-07-04T11:01:10;97858.47;;;34.49;20.89
55866;BME280;41784;49.984;7.518;2022-07-04T11:03:43;97860.44;;;34.19;20.78
55866;BME280;41784;49.984;7.518;2022-07-04T11:11:51;97870.22;;;33.34;22.17
55866;BME280;41784;49.984;7.518;2022-07-04T11:14:29;97872.19;;;33.32;21.68
55866;BME280;41784;49.984;7.518;2022-07-04T11:16:58;97867.41;;;33.17;21.98
55866;BME280;41784;49.984;7.518;2022-07-04T11:19:26;97864.31;;;33.11;21.90
55866;BME280;41784;49.984;7.518;2022-07-04T11:21:55;97851.44;;;32.86;22.55
55866;BME280;41784;49.984;7.518;2022-07-04T11:24:24;97860.09;;;32.39;22.68
55866;BME280;41784;49.984;7.518;2022-07-04T11:26:56;97856.09;;;32.24;22.82
55866;BME280;41784;49.984;7.518;2022-07-04T11:29:24;97857.16;;;32.42;22.64
55866;BME280;41784;49.984;7.518;2022-07-04T11:31:53;97849.66;;;32.36;22.10
55866;BME280;41784;49.984;7.518;2022-07-04T11:34:22;97842.00;;;32.22;23.10
55866;BME280;41784;49.984;7.518;2022-07-04T11:36:50;97834.44;;;32.17;22.96
55866;BME280;41784;49.984;7.518;2022-07-04T11:39:19;97839.59;;;32.09;23.19
55866;BME280;41784;49.984;7.518;2022-07-04T11:41:49;97841.28;;;32.10;22.28
55866;BME280;41784;49.984;7.518;2022-07-04T11:44:35;97836.50;;;32.14;22.52
55866;BME280;41784;49.984;7.518;2022-07-04T11:47:17;97831.03;;;32.15;22.50
55866;BME280;41784;49.984;7.518;2022-07-04T11:49:47;97825.28;;;32.20;22.37
55866;BME280;41784;49.984;7.518;2022-07-04T11:52:17;97825.50;;;31.97;23.45
55866;BME280;41784;49.984;7.518;2022-07-04T11:54:46;97827.66;;;31.92;22.88
55866;BME280;41784;49.984;7.518;2022-07-04T11:57:17;97822.31;;;31.92;21.89
55866;BME280;41784;49.984;7.518;2022-07-04T11:59:56;97824.34;;;31.69;22.26
55866;BME280;41784;49.984;7.518;2022-07-04T12:02:26;97825.00;;;31.61;22.16
55866;BME280;41784;49.984;7.518;2022-07-04T12:04:54;97827.56;;;31.63;22.03
55866;BME280;41784;49.984;7.518;2022-07-04T12:07:24;97835.41;;;31.22;22.06
55866;BME280;41784;49.984;7.518;2022-07-04T12:09:53;97833.16;;;30.86;22.10
55866;BME280;41784;49.984;7.518;2022-07-04T12:12:22;97835.88;;;30.63;22.96
55866;BME280;41784;49.984;7.518;2022-07-04T12:15:00;97838.72;;;30.50;23.58
55866;BME280;41784;49.984;7.518;2022-07-04T12:17:31;97833.84;;;30.55;23.16
55866;BME280;41784;49.984;7.518;2022-07-04T12:20:00;97831.53;;;30.62;23.70
55866;BME280;41784;49.984;7.518;2022-07-04T12:22:36;97833.47;;;30.60;24.54
55866;BME280;41784;49.984;7.518;2022-07-04T12:25:06;97830.66;;;30.62;24.55
55866;BME280;41784;49.984;7.518;2022-07-04T12:27:36;97821.44;;;30.66;24.96
55866;BME280;41784;49.984;7.518;2022-07-04T12:30:08;97817.78;;;30.67;23.78
55866;BME280;41784;49.984;7.518;2022-07-04T12:32:44;97819.50;;;30.68;24.50
55866;BME280;41784;49.984;7.518;2022-07-04T12:37:59;97814.00;;;30.80;24.16
55866;BME280;41784;49.984;7.518;2022-07-04T12:40:28;97821.00;;;30.81;24.55
55866;BME280;41784;49.984;7.518;2022-07-04T12:42:57;97816.19;;;30.75;24.46
55866;BME280;41784;49.984;7.518;2022-07-04T12:45:28;97807.75;;;30.70;24.29
55866;BME280;41784;49.984;7.518;2022-07-04T12:48:17;97801.47;;;30.60;23.93
55866;BME280;41784;49.984;7.518;2022-07-04T12:50:46;97806.38;;;30.44;24.60
55866;BME280;41784;49.984;7.518;2022-07-04T12:53:14;97802.13;;;30.41;24.55
55866;BME280;41784;49.984;7.518;2022-07-04T12:55:44;97794.75;;;30.33;23.98
55866;BME280;41784;49.984;7.518;2022-07-04T12:58:13;97803.59;;;30.23;24.22
55866;BME280;41784;49.984;7.518;2022-07-04T13:00:44;97796.56;;;30.22;23.74
55866;BME280;41784;49.984;7.518;2022-07-04T13:03:13;97789.41;;;30.22;23.24
55866;BME280;41784;49.984;7.518;2022-07-04T13:05:41;97787.53;;;30.13;23.52
55866;BME280;41784;49.984;7.518;2022-07-04T13:08:10;97791.28;;;29.88;24.39
55866;BME280;41784;49.984;7.518;2022-07-04T13:10:38;97799.63;;;29.94;24.23
55866;BME280;41784;49.984;7.518;2022-07-04T13:13:07;97782.19;;;30.13;23.76
55866;BME280;41784;49.984;7.518;2022-07-04T13:15:33;97778.28;;;30.17;23.09
55866;BME280;41784;49.984;7.518;2022-07-04T13:18:04;97781.94;;;30.16;23.50
55866;BME280;41784;49.984;7.518;2022-07-04T13:20:32;97776.03;;;30.01;22.76
55866;BME280;41784;49.984;7.518;2022-07-04T13:23:00;97772.63;;;29.88;23.21
55866;BME280;41784;49.984;7.518;2022-07-04T13:25:29;97776.38;;;29.85;24.34
55866;BME280;41784;49.984;7.518;2022-07-04T13:27:57;97777.38;;;29.84;24.53